Time;durP1;ratioP1;P1;durP2;ratioP2;P2;SDS_P1;SDS_P2;PMS_P1;PMS_P2;Temp;Humidity;BMP_temperature;BMP_pressure;BME280_temperature;BME280_humidity;BME280_pressure;Samples;Min_cycle;Max_cycle;Signal;HPM_P1;HPM_P2
2023/03/08 00:01:46;;;;;;;29.93;24.63;;;;;;;0.95;100.00;99959.81;5031181;28;20033;-57
2023/03/08 00:04:11;;;;;;;27.30;22.43;;;;;;;1.00;100.00;99963.13;5031665;28;20021;-57
2023/03/08 00:06:36;;;;;;;27.73;24.50;;;;;;;0.95;100.00;99949.34;5030628;28;20030;-57
2023/03/08 00:09:04;;;;;;;27.60;24.77;;;;;;;1.02;100.00;99960.44;5030314;28;20021;-57
2023/03/08 00:11:29;;;;;;;26.87;23.80;;;;;;;1.03;100.00;99957.78;5030611;28;20108;-57
2023/03/08 00:13:56;;;;;;;28.40;24.20;;;;;;;1.05;100.00;99955.06;5031681;28;20100;-58
2023/03/08 00:16:22;;;;;;;30.10;25.10;;;;;;;1.03;100.00;99967.38;5032066;28;20030;-57
2023/03/08 00:18:47;;;;;;;27.97;24.60;;;;;;;1.06;100.00;99955.03;5038006;28;20032;-57
2023/03/08 00:21:15;;;;;;;28.60;25.23;;;;;;;1.04;100.00;99956.00;5029364;28;20041;-58
2023/03/08 00:23:41;;;;;;;29.77;24.93;;;;;;;1.01;100.00;99951.72;5029370;28;20025;-57
2023/03/08 00:26:10;;;;;;;28.30;24.90;;;;;;;0.98;100.00;99956.25;5030912;28;20028;-57
2023/03/08 00:28:38;;;;;;;28.13;25.17;;;;;;;1.05;100.00;99955.94;5029620;28;20051;-57
2023/03/08 00:31:06;;;;;;;29.30;24.67;;;;;;;1.06;100.00;99960.28;5030495;28;20025;-57
2023/03/08 00:33:33;;;;;;;28.00;24.97;;;;;;;1.07;100.00;99961.97;5031135;28;20032;-57
2023/03/08 00:36:04;;;;;;;28.30;25.07;;;;;;;1.02;100.00;99961.28;5031142;28;20401;-57
2023/03/08 00:38:31;;;;;;;29.13;25.17;;;;;;;1.01;100.00;99954.34;5031481;28;20021;-57
2023/03/08 00:40:57;;;;;;;28.90;23.63;;;;;;;1.08;100.00;99961.03;5029988;28;20048;-57
2023/03/08 00:43:23;;;;;;;31.83;26.47;;;;;;;0.99;100.00;99952.69;5030976;28;20495;-57
2023/03/08 00:45:49;;;;;;;31.93;28.03;;;;;;;1.06;100.00;99955.03;5028725;28;20032;-57
2023/03/08 00:48:14;;;;;;;32.90;26.57;;;;;;;1.06;100.00;99957.66;5028180;28;20151;-58
2023/03/08 00:50:40;;;;;;;31.00;27.70;;;;;;;1.04;100.00;99953.38;5030120;28;20542;-57
2023/03/08 00:53:05;;;;;;;36.47;28.00;;;;;;;0.95;100.00;99938.88;5031320;28;20030;-57
2023/03/08 00:55:31;;;;;;;34.13;29.23;;;;;;;1.00;100.00;99944.81;5030257;28;20025;-57
2023/03/08 00:57:56;;;;;;;37.80;30.40;;;;;;;1.07;100.00;99951.50;5030331;28;20025;-57
2023/03/08 01:00:21;;;;;;;32.43;28.87;;;;;;;0.99;100.00;99935.22;5031106;28;20030;-57
2023/03/08 01:02:47;;;;;;;31.73;27.73;;;;;;;1.05;100.00;99939.38;5031477;28;20017;-57
2023/03/08 01:05:13;;;;;;;35.33;28.80;;;;;;;1.10;100.00;99938.28;5029773;28;20026;-58
2023/03/08 01:07:38;;;;;;;35.47;30.33;;;;;;;1.09;100.00;99933.13;5030118;28;20495;-57
2023/03/08 01:10:04;;;;;;;34.53;30.13;;;;;;;1.07;100.00;99933.16;5030645;28;20017;-58
2023/03/08 01:12:34;;;;;;;33.97;26.77;;;;;;;1.12;100.00;99938.25;5031041;28;20431;-57
2023/03/08 01:15:00;;;;;;;;;;;;;;;1.18;100.00;99937.13;5031033;28;20021;-58
2023/03/08 01:17:25;;;;;;;39.07;28.37;;;;;;;1.10;100.00;99919.94;5031818;28;20024;-57
2023/03/08 01:19:51;;;;;;;42.73;32.00;;;;;;;1.09;100.00;99913.03;5033593;28;20028;-57
2023/03/08 01:22:16;;;;;;;44.27;30.83;;;;;;;1.06;100.00;99905.28;5034844;28;20459;-57
2023/03/08 01:24:46;;;;;;;43.97;35.93;;;;;;;1.08;100.00;99906.06;5034015;28;20528;-57
2023/03/08 01:27:11;;;;;;;47.20;32.90;;;;;;;1.10;100.00;99901.63;5032836;28;20152;-57
2023/03/08 01:29:39;;;;;;;46.97;32.47;;;;;;;1.06;100.00;99893.94;5034365;28;20533;-57
2023/03/08 01:32:05;;;;;;;45.03;33.40;;;;;;;1.10;100.00;99901.63;5033532;28;20025;-57
2023/03/08 01:34:33;;;;;;;47.03;36.37;;;;;;;1.03;100.00;99878.34;5034149;28;20036;-57
2023/03/08 01:36:58;;;;;;;50.23;38.63;;;;;;;1.05;100.00;99882.63;5033763;28;20022;-57
2023/03/08 01:39:23;;;;;;;51.10;38.20;;;;;;;1.10;100.00;99882.44;5033483;28;20094;-58
2023/03/08 01:41:49;;;;;;;48.07;38.67;;;;;;;1.06;100.00;99873.00;5034152;28;20025;-57
2023/03/08 01:44:19;;;;;;;50.80;37.67;;;;;;;1.09;100.00;99878.13;5033723;28;20083;-58
2023/03/08 01:46:45;;;;;;;51.40;40.33;;;;;;;1.13;100.00;99875.31;5034376;28;20049;-57
2023/03/08 01:49:29;;;;;;;53.87;39.57;;;;;;;1.09;100.00;99867.66;5034509;28;20091;-57
2023/03/08 01:52:01;;;;;;;53.47;39.40;;;;;;;1.08;100.00;99858.94;5033417;28;20079;-57
2023/03/08 01:54:39;;;;;;;51.27;38.53;;;;;;;1.08;100.00;99872.03;5032997;28;20033;-58
2023/03/08 01:57:12;;;;;;;57.33;41.60;;;;;;;1.08;100.00;99868.56;5040265;28;20048;-58
2023/03/08 01:59:38;;;;;;;54.20;39.73;;;;;;;1.12;100.00;99863.16;5041592;28;20029;-57
2023/03/08 02:02:04;;;;;;;54.27;38.63;;;;;;;1.12;100.00;99863.16;5032242;28;20366;-57
2023/03/08 02:04:30;;;;;;;55.17;41.87;;;;;;;1.17;100.00;99862.09;5037701;28;20026;-57
2023/03/08 02:06:55;;;;;;;57.37;40.90;;;;;;;1.17;100.00;99862.09;5033691;28;20037;-58
2023/03/08 02:09:21;;;;;;;55.53;42.43;;;;;;;1.12;100.00;99860.53;5032608;28;20542;-58
2023/03/08 02:11:47;;;;;;;56.67;41.90;;;;;;;1.16;100.00;99845.53;5031457;28;20481;-57
2023/03/08 02:14:15;;;;;;;59.93;43.47;;;;;;;1.18;100.00;99840.22;5032384;28;20021;-57
2023/03/08 02:16:41;;;;;;;56.97;42.67;;;;;;;1.17;100.00;99836.75;5033683;28;20022;-57
2023/03/08 02:19:34;;;;;;;50.03;36.67;;;;;;;1.22;100.00;99831.34;5031785;28;20018;-57
2023/03/08 02:22:07;;;;;;;56.30;42.37;;;;;;;1.19;100.00;99831.47;5048432;28;20108;-57
2023/03/08 02:24:33;;;;;;;59.30;43.43;;;;;;;1.16;100.00;99816.75;5031698;28;20029;-57
2023/03/08 02:27:02;;;;;;;57.00;42.55;;;;;;;1.17;100.00;99825.44;5013756;28;20026;-57
2023/03/08 02:29:28;;;;;;;55.33;43.17;;;;;;;1.19;100.00;99818.38;5027740;28;20018;-57
2023/03/08 02:31:53;;;;;;;56.57;40.73;;;;;;;1.19;100.00;99821.00;5032381;28;20510;-57
2023/03/08 02:34:18;;;;;;;55.73;42.40;;;;;;;1.13;100.00;99817.72;5031744;28;20059;-57
2023/03/08 02:36:44;;;;;;;56.03;41.73;;;;;;;1.12;100.00;99807.31;5033123;28;20036;-57
2023/03/08 02:39:09;;;;;;;57.93;43.57;;;;;;;1.14;100.00;99805.47;5033658;28;20534;-57
2023/03/08 02:41:34;;;;;;;58.60;42.90;;;;;;;1.14;100.00;99805.47;5032842;28;20026;-58
2023/03/08 02:44:00;;;;;;;57.83;41.90;;;;;;;1.16;100.00;99810.66;5033404;28;20088;-57
2023/03/08 02:46:27;;;;;;;56.60;41.93;;;;;;;1.11;100.00;99802.97;5032007;28;20409;-57
2023/03/08 02:48:52;;;;;;;54.53;43.53;;;;;;;1.10;100.00;99793.44;5032138;28;20131;-57
2023/03/08 02:51:19;;;;;;;55.60;42.23;;;;;;;1.14;100.00;99801.06;5033240;28;20120;-57
2023/03/08 02:53:44;;;;;;;51.13;40.33;;;;;;;1.16;100.00;99802.78;5033207;28;20506;-57
2023/03/08 02:56:10;;;;;;;50.37;40.87;;;;;;;1.15;100.00;99796.72;5030976;28;20033;-57
2023/03/08 02:58:35;;;;;;;50.17;41.90;;;;;;;1.12;100.00;99795.06;5033232;28;20424;-57
2023/03/08 03:01:08;;;;;;;54.33;41.92;;;;;;;1.12;100.00;99797.69;5031887;28;20032;-57
2023/03/08 03:03:36;;;;;;;48.42;40.15;;;;;;;1.16;100.00;99785.31;5033100;28;20021;-57
2023/03/08 03:06:01;;;;;;;49.67;39.70;;;;;;;1.18;100.00;99790.47;5032791;28;20030;-57
2023/03/08 03:08:30;;;;;;;48.03;39.10;;;;;;;1.20;100.00;99786.03;5031703;28;20079;-57
2023/03/08 03:10:55;;;;;;;48.83;40.43;;;;;;;1.18;100.00;99774.75;5030815;28;20025;-57
2023/03/08 03:13:20;;;;;;;50.07;39.07;;;;;;;1.16;100.00;99760.91;5032481;28;20068;-57
2023/03/08 03:15:46;;;;;;;55.47;41.60;;;;;;;1.14;100.00;99774.03;5032499;28;20029;-57
2023/03/08 03:18:11;;;;;;;53.87;41.07;;;;;;;1.14;100.00;99768.81;5031510;28;20472;-57
2023/03/08 03:20:39;;;;;;;55.43;41.90;;;;;;;1.22;100.00;99764.09;5031193;28;20464;-58
2023/03/08 03:23:05;;;;;;;48.43;39.13;;;;;;;1.21;100.00;99766.81;5029715;28;20036;-58
2023/03/08 03:25:30;;;;;;;52.73;41.20;;;;;;;1.22;100.00;99753.63;5031363;28;20025;-57
2023/03/08 03:27:56;;;;;;;52.03;40.27;;;;;;;1.21;100.00;99746.69;5032882;28;20025;-57
2023/03/08 03:30:21;;;;;;;53.28;42.00;;;;;;;1.28;100.00;99745.50;5030677;28;20472;-57
2023/03/08 03:32:47;;;;;;;53.13;42.50;;;;;;;1.23;100.00;99730.91;5033017;28;20028;-57
2023/03/08 03:35:12;;;;;;;52.50;42.03;;;;;;;1.27;100.00;99724.63;5031180;28;20484;-58
2023/03/08 03:37:37;;;;;;;52.37;40.93;;;;;;;1.30;100.00;99717.50;5032505;28;20100;-58
2023/03/08 03:40:04;;;;;;;55.00;40.87;;;;;;;1.34;100.00;99721.66;5029647;28;20029;-58
2023/03/08 03:42:30;;;;;;;56.33;44.13;;;;;;;1.31;100.00;99719.19;5030885;28;20025;-57
2023/03/08 03:44:58;;;;;;;52.20;42.87;;;;;;;1.30;100.00;99716.66;5035244;28;20087;-57
2023/03/08 03:47:23;;;;;;;53.30;43.40;;;;;;;1.29;100.00;99717.53;5050661;28;20057;-57
2023/03/08 03:49:49;;;;;;;53.17;41.35;;;;;;;1.30;100.00;99714.88;5040668;28;20112;-57
2023/03/08 03:52:14;;;;;;;50.92;42.08;;;;;;;1.28;100.00;99718.47;5049881;28;20480;-57
2023/03/08 03:54:39;;;;;;;51.90;42.10;;;;;;;1.25;100.00;99718.59;5041774;28;20025;-57
2023/03/08 03:57:05;;;;;;;51.03;40.90;;;;;;;1.23;100.00;99702.94;5031260;28;20378;-57
2023/03/08 03:59:32;;;;;;;52.27;41.97;;;;;;;1.29;100.00;99702.69;5045145;28;20061;-57
2023/03/08 04:01:57;;;;;;;48.63;40.00;;;;;;;1.25;100.00;99695.03;5048599;28;20032;-57
2023/03/08 04:04:22;;;;;;;46.70;38.43;;;;;;;1.29;100.00;99701.81;5045214;28;20380;-57
2023/03/08 04:06:48;;;;;;;43.10;36.07;;;;;;;1.25;100.00;99692.41;5044528;28;20120;-57
2023/03/08 04:09:17;;;;;;;42.80;35.00;;;;;;;1.29;100.00;99693.97;5037137;28;20021;-57
2023/03/08 04:11:43;;;;;;;38.20;29.63;;;;;;;1.29;100.00;99686.97;5047533;28;20167;-57
2023/03/08 04:14:08;;;;;;;37.37;33.37;;;;;;;1.25;100.00;99677.53;5033499;28;20493;-57
2023/03/08 04:16:37;;;;;;;38.27;33.37;;;;;;;1.20;100.00;99676.03;5027816;28;20036;-58
2023/03/08 04:19:09;;;;;;;36.55;30.98;;;;;;;1.22;100.00;99672.44;5044046;28;20063;-57
2023/03/08 04:21:34;;;;;;;37.87;31.40;;;;;;;1.17;100.00;99660.47;5046401;28;20357;-57
2023/03/08 04:24:00;;;;;;;36.40;32.25;;;;;;;1.17;100.00;99663.09;5046433;28;20035;-57
2023/03/08 04:26:25;;;;;;;36.08;32.17;;;;;;;1.06;100.00;99653.94;5050989;28;20025;-57
2023/03/08 04:28:51;;;;;;;35.63;30.40;;;;;;;1.11;100.00;99658.97;5049375;28;20525;-57
2023/03/08 04:31:23;;;;;;;34.27;29.80;;;;;;;1.09;100.00;99645.97;5049080;28;20021;-57
2023/03/08 04:33:49;;;;;;;36.07;31.07;;;;;;;1.06;100.00;99648.72;5045834;28;20060;-57
2023/03/08 04:36:18;;;;;;;35.03;29.63;;;;;;;1.02;100.00;99641.03;5031259;28;20021;-57
2023/03/08 04:38:44;;;;;;;32.67;28.77;;;;;;;1.08;100.00;99641.63;5041430;28;20025;-57
2023/03/08 04:41:10;;;;;;;35.83;30.53;;;;;;;1.04;100.00;99632.22;5039010;28;20408;-57
2023/03/08 04:43:43;;;;;;;34.20;29.27;;;;;;;1.01;100.00;99627.09;5030994;28;20052;-58
2023/03/08 04:46:11;;;;;;;32.30;28.80;;;;;;;1.04;100.00;99631.38;5049086;28;20111;-57
2023/03/08 04:48:37;;;;;;;31.97;28.47;;;;;;;1.09;100.00;99624.16;5040224;28;20166;-57
2023/03/08 04:51:04;;;;;;;33.87;30.17;;;;;;;1.10;100.00;99623.25;5048324;28;20048;-57
2023/03/08 04:53:30;;;;;;;31.57;27.57;;;;;;;1.15;100.00;99629.13;5033048;28;20068;-57
2023/03/08 04:55:58;;;;;;;29.17;25.80;;;;;;;1.13;100.00;99618.72;5033799;28;20350;-57
2023/03/08 04:58:24;;;;;;;29.60;26.17;;;;;;;1.11;100.00;99612.69;5035523;28;20017;-57
2023/03/08 05:00:51;;;;;;;30.50;26.57;;;;;;;1.08;100.00;99602.34;5035461;28;20032;-57
2023/03/08 05:03:17;;;;;;;29.97;21.80;;;;;;;1.17;100.00;99602.88;5033076;28;20051;-57
2023/03/08 05:05:54;;;;;;;29.33;24.93;;;;;;;1.14;100.00;99588.13;5034773;28;20476;-57
2023/03/08 05:08:21;;;;;;;27.70;22.80;;;;;;;1.11;100.00;99588.28;5033619;28;20071;-57
2023/03/08 05:10:56;;;;;;;29.13;22.27;;;;;;;1.12;100.00;99587.38;5034532;28;20030;-57
2023/03/08 05:13:22;;;;;;;30.70;25.47;;;;;;;1.06;100.00;99583.25;5033405;28;20025;-57
2023/03/08 05:15:47;;;;;;;27.23;24.30;;;;;;;1.01;100.00;99574.75;5017051;28;20358;-57
2023/03/08 05:18:12;;;;;;;33.87;21.97;;;;;;;1.06;100.00;99574.53;5033644;28;20028;-57
2023/03/08 05:20:38;;;;;;;25.00;21.73;;;;;;;1.00;100.00;99566.94;5033210;28;20580;-57
2023/03/08 05:23:05;;;;;;;28.60;25.47;;;;;;;1.06;100.00;99569.28;5034584;28;20108;-57
2023/03/08 05:25:33;;;;;;;29.53;25.83;;;;;;;1.06;100.00;99566.69;5032723;28;20056;-57
2023/03/08 05:27:59;;;;;;;25.65;21.85;;;;;;;1.06;100.00;99564.06;5034779;28;20026;-57
2023/03/08 05:30:26;;;;;;;30.05;24.90;;;;;;;1.03;100.00;99561.56;5033399;28;20383;-57
2023/03/08 05:32:51;;;;;;;25.83;22.70;;;;;;;1.00;100.00;99552.13;5033117;28;20029;-57
2023/03/08 05:35:16;;;;;;;28.60;24.63;;;;;;;1.03;100.00;99551.09;5032859;28;20021;-57
2023/03/08 05:37:42;;;;;;;30.67;25.03;;;;;;;1.07;100.00;99536.97;5034616;28;20384;-57
2023/03/08 05:40:08;;;;;;;24.63;22.00;;;;;;;0.99;100.00;99537.31;5032954;28;20118;-57
2023/03/08 05:42:34;;;;;;;23.27;20.73;;;;;;;0.95;100.00;99530.53;5032894;28;20411;-57
2023/03/08 05:44:59;;;;;;;22.00;18.57;;;;;;;0.90;100.00;99524.63;5034547;28;20036;-57
2023/03/08 05:47:25;;;;;;;23.07;20.63;;;;;;;0.87;100.00;99522.16;5033183;28;20100;-57
2023/03/08 05:49:51;;;;;;;27.57;17.73;;;;;;;0.81;100.00;99498.88;5016401;28;20037;-57
2023/03/08 05:52:19;;;;;;;22.20;19.90;;;;;;;0.78;100.00;99505.09;5034091;28;20061;-57
2023/03/08 05:54:44;;;;;;;20.77;18.67;;;;;;;0.75;100.00;99497.38;5033085;28;20018;-57
2023/03/08 05:57:09;;;;;;;21.07;17.17;;;;;;;0.79;100.00;99493.72;5033088;28;20028;-57
2023/03/08 05:59:35;;;;;;;22.07;17.83;;;;;;;0.72;100.00;99489.69;5032815;28;20369;-57
2023/03/08 06:02:00;;;;;;;17.90;15.37;;;;;;;0.67;100.00;99478.56;5033967;28;20060;-57
2023/03/08 06:04:28;;;;;;;16.27;14.57;;;;;;;0.61;100.00;99471.00;5033082;28;20022;-58
2023/03/08 06:06:53;;;;;;;18.20;16.27;;;;;;;0.60;100.00;99478.00;5032917;28;20060;-57
2023/03/08 06:09:18;;;;;;;16.60;14.77;;;;;;;0.57;100.00;99479.91;5045991;28;20112;-57
2023/03/08 06:11:44;;;;;;;15.90;13.87;;;;;;;0.56;100.00;99475.56;5033959;28;20091;-58
2023/03/08 06:14:09;;;;;;;17.93;16.13;;;;;;;0.57;100.00;99482.50;5031971;28;20105;-57
2023/03/08 06:16:37;;;;;;;15.70;13.90;;;;;;;0.55;100.00;99479.94;5035976;28;20030;-58
2023/03/08 06:19:03;;;;;;;14.00;12.50;;;;;;;0.53;100.00;99471.34;5030264;28;20025;-57
2023/03/08 06:21:28;;;;;;;15.10;12.70;;;;;;;0.58;100.00;99476.34;5031183;28;20067;-57
2023/03/08 06:23:56;;;;;;;13.07;10.70;;;;;;;0.55;100.00;99469.50;5032803;28;20029;-57
2023/03/08 06:26:21;;;;;;;14.00;12.40;;;;;;;0.57;100.00;99469.44;5031318;28;20029;-57
2023/03/08 06:28:47;;;;;;;13.87;12.37;;;;;;;0.56;100.00;99473.81;5031513;28;20523;-57
2023/03/08 06:31:15;;;;;;;13.50;11.93;;;;;;;0.54;100.00;99459.13;5028882;28;20032;-58
2023/03/08 06:33:40;;;;;;;12.43;10.80;;;;;;;0.61;100.00;99473.59;5028040;28;20037;-57
2023/03/08 06:36:18;;;;;;;14.23;12.73;;;;;;;0.52;100.00;99464.41;5031783;28;20040;-58
2023/03/08 06:38:43;;;;;;;12.17;10.33;;;;;;;0.45;100.00;99462.97;5031094;28;20108;-58
2023/03/08 06:41:11;;;;;;;10.83;9.70;;;;;;;0.44;100.00;99458.66;5044110;28;20030;-57
2023/03/08 06:43:36;;;;;;;11.30;10.30;;;;;;;0.42;100.00;99458.72;5030494;28;20540;-58
2023/03/08 06:46:13;;;;;;;9.77;8.77;;;;;;;0.42;100.00;99450.88;5033257;28;20029;-58
2023/03/08 06:48:39;;;;;;;9.37;8.47;;;;;;;0.32;100.00;99449.56;5031172;28;20370;-58
2023/03/08 06:51:05;;;;;;;9.43;8.63;;;;;;;0.38;100.00;99462.41;5028247;28;20388;-57
2023/03/08 06:53:31;;;;;;;10.17;9.07;;;;;;;0.34;100.00;99465.22;5030291;28;20036;-57
2023/03/08 06:55:57;;;;;;;10.10;9.10;;;;;;;0.40;100.00;99471.00;5031275;28;20025;-56
2023/03/08 06:58:22;;;;;;;9.73;8.83;;;;;;;0.37;100.00;99465.06;5032907;28;20037;-57
2023/03/08 07:00:48;;;;;;;10.43;9.43;;;;;;;0.39;100.00;99465.88;5031650;28;20140;-57
2023/03/08 07:03:13;;;;;;;8.63;7.80;;;;;;;0.36;100.00;99460.78;5031446;28;20022;-57
2023/03/08 07:05:39;;;;;;;9.03;8.13;;;;;;;0.33;100.00;99466.13;5033445;28;20033;-57
2023/03/08 07:08:08;;;;;;;11.70;9.00;;;;;;;0.29;100.00;99457.56;5029442;28;20512;-57
2023/03/08 07:10:33;;;;;;;8.80;8.10;;;;;;;0.23;100.00;99452.59;5031694;28;20093;-57
2023/03/08 07:12:59;;;;;;;9.47;8.67;;;;;;;0.21;100.00;99438.75;5032784;28;20029;-57
2023/03/08 07:15:27;;;;;;;10.00;7.60;;;;;;;0.29;100.00;99443.63;5030672;28;20075;-57
2023/03/08 07:17:54;;;;;;;9.63;8.73;;;;;;;0.21;100.00;99434.38;5025546;28;20022;-55
2023/03/08 07:20:21;;;;;;;9.33;8.63;;;;;;;0.35;100.00;99448.59;5029396;28;20018;-56
2023/03/08 07:22:47;;;;;;;8.17;7.47;;;;;;;0.31;100.00;99437.44;5028847;28;20024;-57
2023/03/08 07:25:15;;;;;;;7.70;6.97;;;;;;;0.37;100.00;99441.53;5026767;28;20439;-56
2023/03/08 07:27:40;;;;;;;8.47;7.67;;;;;;;0.35;100.00;99438.13;5027388;28;20061;-56
2023/03/08 07:30:09;;;;;;;9.27;8.37;;;;;;;0.31;100.00;99433.97;5029172;28;20057;-56
2023/03/08 07:32:36;;;;;;;8.33;7.63;;;;;;;0.32;100.00;99418.19;5029378;28;20035;-56
2023/03/08 07:35:01;;;;;;;8.60;7.83;;;;;;;0.36;100.00;99422.41;5032008;28;20021;-56
2023/03/08 07:37:27;;;;;;;9.50;8.27;;;;;;;0.32;100.00;99412.97;5032335;28;20427;-57
2023/03/08 07:39:52;;;;;;;8.53;7.70;;;;;;;0.33;100.00;99419.06;5030244;28;20113;-57
2023/03/08 07:42:17;;;;;;;8.17;6.93;;;;;;;0.36;100.00;99411.09;5031023;28;20192;-57
2023/03/08 07:44:43;;;;;;;9.53;7.90;;;;;;;0.38;100.00;99406.63;5030211;28;20128;-57
2023/03/08 07:47:09;;;;;;;9.27;8.37;;;;;;;0.31;100.00;99405.22;5027471;28;20025;-56
2023/03/08 07:49:34;;;;;;;10.20;9.20;;;;;;;0.14;100.00;99379.81;5029764;28;20033;-57
2023/03/08 07:52:00;;;;;;;10.77;9.77;;;;;;;0.34;100.00;99402.44;5030688;28;20033;-57
2023/03/08 07:54:25;;;;;;;12.60;11.30;;;;;;;0.40;100.00;99403.03;5030153;28;20108;-56
2023/03/08 07:56:52;;;;;;;11.93;10.73;;;;;;;0.37;100.00;99397.94;5031614;28;20052;-57
2023/03/08 07:59:20;;;;;;;13.20;11.13;;;;;;;0.40;100.00;99387.34;5031656;28;20029;-57
2023/03/08 08:01:45;;;;;;;15.43;11.63;;;;;;;0.41;100.00;99386.44;5031769;28;20033;-57
2023/03/08 08:04:12;;;;;;;12.03;10.87;;;;;;;0.50;100.00;99390.41;5032080;28;20560;-57
2023/03/08 08:06:38;;;;;;;13.13;11.93;;;;;;;0.45;100.00;99374.06;5030651;28;20201;-57
2023/03/08 08:09:04;;;;;;;14.57;13.07;;;;;;;0.48;100.00;99380.94;5029618;28;20060;-57
2023/03/08 08:11:30;;;;;;;12.03;10.83;;;;;;;0.57;100.00;99386.56;5025394;28;20403;-56
2023/03/08 08:13:55;;;;;;;14.47;13.07;;;;;;;0.56;100.00;99386.63;5033498;28;20060;-57
2023/03/08 08:16:20;;;;;;;14.50;13.10;;;;;;;0.56;100.00;99384.88;5026542;28;20037;-57
2023/03/08 08:18:46;;;;;;;14.77;13.33;;;;;;;0.56;100.00;99378.78;5028282;28;20029;-57
2023/03/08 08:21:13;;;;;;;15.20;13.67;;;;;;;0.58;100.00;99369.09;5030674;28;20388;-57
2023/03/08 08:23:40;;;;;;;16.40;14.70;;;;;;;0.61;100.00;99369.81;5032518;28;20029;-57
2023/03/08 08:26:17;;;;;;;14.23;12.83;;;;;;;0.65;100.00;99353.06;5017972;28;20026;-57
2023/03/08 08:28:45;;;;;;;15.67;14.27;;;;;;;0.62;100.00;99339.28;5023057;28;20037;-57
2023/03/08 08:31:14;;;;;;;15.73;14.23;;;;;;;0.72;100.00;99343.16;5022069;28;20114;-57
2023/03/08 08:33:39;;;;;;;16.67;15.03;;;;;;;0.69;100.00;99348.53;5036744;28;20037;-57
2023/03/08 08:36:08;;;;;;;16.83;15.33;;;;;;;0.57;100.00;99338.66;5024046;28;20022;-57
2023/03/08 08:38:34;;;;;;;15.97;14.43;;;;;;;0.62;100.00;99340.13;5028199;28;20127;-57
2023/03/08 08:41:01;;;;;;;13.93;12.63;;;;;;;0.57;100.00;99336.88;5019539;28;20072;-57
2023/03/08 08:43:27;;;;;;;14.50;13.03;;;;;;;0.56;100.00;99326.47;5027951;28;20036;-57
2023/03/08 08:45:54;;;;;;;14.03;12.73;;;;;;;0.48;100.00;99337.31;5026400;28;20116;-57
2023/03/08 08:48:20;;;;;;;13.30;12.00;;;;;;;0.49;100.00;99331.16;5025362;28;20048;-57
2023/03/08 08:50:46;;;;;;;14.97;13.60;;;;;;;0.48;100.00;99345.16;5027129;28;20033;-57
2023/03/08 08:53:14;;;;;;;13.60;12.40;;;;;;;0.47;100.00;99343.44;5042140;28;20029;-57
2023/03/08 08:55:39;;;;;;;14.17;12.87;;;;;;;0.50;100.00;99345.94;5028101;28;20033;-57
2023/03/08 08:58:05;;;;;;;15.70;14.23;;;;;;;0.53;100.00;99356.25;5036550;28;20040;-57
2023/03/08 09:00:32;;;;;;;15.93;14.33;;;;;;;0.50;100.00;99355.53;5032547;28;20037;-57
2023/03/08 09:02:58;;;;;;;16.13;14.63;;;;;;;0.64;100.00;99368.81;5029410;28;20033;-57
2023/03/08 09:05:24;;;;;;;13.77;12.37;;;;;;;0.66;100.00;99369.59;5037694;28;20025;-57
2023/03/08 09:07:53;;;;;;;16.23;14.73;;;;;;;0.65;100.00;99368.75;5034473;28;20414;-57
2023/03/08 09:10:19;;;;;;;17.07;15.43;;;;;;;0.61;100.00;99369.81;5030248;28;20033;-57
2023/03/08 09:12:44;;;;;;;15.73;14.23;;;;;;;0.54;100.00;99360.56;5030390;28;20036;-57
2023/03/08 09:15:10;;;;;;;14.63;13.13;;;;;;;0.61;100.00;99345.41;5027502;28;20037;-57
2023/03/08 09:17:40;;;;;;;14.37;12.93;;;;;;;0.64;100.00;99322.56;5031052;28;20032;-57
2023/03/08 09:20:09;;;;;;;;;;;;;;;0.70;100.00;99317.97;5027600;28;20825;-58
2023/03/08 09:22:36;;;;;;;16.40;14.73;;;;;;;0.64;100.00;99299.03;5035705;28;19919;-57
2023/03/08 09:25:02;;;;;;;17.77;16.07;;;;;;;0.66;100.00;99294.59;5030906;28;20030;-57
2023/03/08 09:27:27;;;;;;;19.53;17.63;;;;;;;0.71;100.00;99289.16;5027680;28;20040;-57
2023/03/08 09:29:53;;;;;;;21.13;19.03;;;;;;;0.52;100.00;99273.47;5039311;28;20021;-57
2023/03/08 09:32:18;;;;;;;18.47;16.47;;;;;;;0.68;100.00;99284.91;5029087;28;20087;-57
2023/03/08 09:34:44;;;;;;;21.10;18.90;;;;;;;0.63;100.00;99281.66;5027950;28;20060;-57
2023/03/08 09:37:10;;;;;;;19.20;17.40;;;;;;;0.64;100.00;99285.94;5032732;28;20040;-57
2023/03/08 09:39:37;;;;;;;17.97;16.27;;;;;;;0.67;100.00;99279.72;5026957;28;20429;-57
2023/03/08 09:42:05;;;;;;;17.87;16.13;;;;;;;0.78;100.00;99279.22;5038611;28;20029;-57
2023/03/08 09:44:49;;;;;;;13.80;12.50;;;;;;;0.80;100.00;99274.78;5033543;28;20605;-57
2023/03/08 09:47:58;;;;;;;15.37;13.97;;;;;;;0.88;100.00;99270.00;5035167;28;20025;-56
2023/03/08 09:50:32;;;;;;;14.25;12.88;;;;;;;0.89;100.00;99258.63;5020618;28;20421;-57
2023/03/08 09:53:08;;;;;;;17.17;15.37;;;;;;;0.80;100.00;99252.06;5042221;28;20029;-57
2023/03/08 09:55:37;;;;;;;16.03;14.33;;;;;;;0.87;100.00;99256.06;5024687;28;20034;-57
2023/03/08 09:58:11;;;;;;;17.47;15.87;;;;;;;0.96;100.00;99264.38;5030910;28;20551;-57
2023/03/08 10:00:37;;;;;;;17.10;14.43;;;;;;;1.11;100.00;99264.47;5040478;28;20587;-57
2023/03/08 10:03:21;;;;;;;17.90;16.23;;;;;;;1.14;100.00;99250.38;5026547;28;20060;-57
2023/03/08 10:05:46;;;;;;;15.23;13.55;;;;;;;1.19;100.00;99251.00;5028096;28;20026;-56
2023/03/08 10:08:11;;;;;;;17.65;16.13;;;;;;;1.34;100.00;99258.06;5030528;28;20204;-57
2023/03/08 10:11:00;;;;;;;16.50;14.70;;;;;;;1.50;100.00;99252.91;5036964;28;20026;-57
2023/03/08 10:13:37;;;;;;;18.10;16.37;;;;;;;1.53;99.39;99255.38;5032451;28;20030;-57
2023/03/08 10:16:10;;;;;;;18.25;16.55;;;;;;;1.51;98.42;99261.63;5032387;28;20083;-57
2023/03/08 10:18:52;;;;;;;19.20;17.50;;;;;;;1.51;98.95;99262.47;5038730;28;20039;-58
2023/03/08 10:21:20;;;;;;;21.38;19.45;;;;;;;1.43;98.46;99264.63;5032894;28;20105;-57
2023/03/08 10:23:51;;;;;;;21.88;19.65;;;;;;;1.38;98.02;99248.28;5031210;28;20025;-57
2023/03/08 10:26:17;;;;;;;24.77;22.38;;;;;;;1.34;99.28;99246.75;5026599;28;20029;-58
2023/03/08 10:28:43;;;;;;;23.67;21.48;;;;;;;1.37;99.47;99230.88;5025003;28;20025;-58
2023/03/08 10:31:21;;;;;;;25.27;22.77;;;;;;;1.36;99.15;99240.53;5036369;28;20037;-58
2023/03/08 10:33:49;;;;;;;24.40;22.13;;;;;;;1.38;99.31;99244.81;5028556;28;20025;-57
2023/03/08 10:36:24;;;;;;;26.73;24.02;;;;;;;1.36;99.85;99255.41;5032003;28;20029;-58
2023/03/08 10:39:07;;;;;;;27.85;24.95;;;;;;;1.44;99.69;99244.50;5040315;28;20098;-57
2023/03/08 10:41:59;;;;;;;25.48;23.17;;;;;;;1.44;99.37;99234.03;5035304;28;20503;-58
2023/03/08 10:44:44;;;;;;;24.73;22.27;;;;;;;1.41;99.42;99210.63;5032410;28;20107;-57
2023/03/08 10:47:33;;;;;;;23.90;21.60;;;;;;;1.52;98.91;99217.00;5029963;28;20017;-57
2023/03/08 10:50:03;;;;;;;22.02;19.85;;;;;;;1.53;98.51;99225.69;5032659;28;20484;-57
2023/03/08 10:52:31;;;;;;;;;;;;;;;1.65;98.93;99222.44;5048798;28;20029;-57
2023/03/08 10:55:08;;;;;;;24.50;22.07;;;;;;;1.58;99.05;99215.81;5034452;28;19920;-58
2023/03/08 10:57:33;;;;;;;24.37;21.87;;;;;;;1.61;98.75;99220.91;5023894;28;20404;-57
2023/03/08 11:00:18;;;;;;;25.83;23.43;;;;;;;1.51;99.01;99233.66;5025233;28;20036;-57
2023/03/08 11:02:44;;;;;;;26.40;23.80;;;;;;;1.52;99.26;99239.72;5030867;28;20022;-58
2023/03/08 11:05:25;;;;;;;24.10;21.67;;;;;;;1.48;98.47;99240.81;5035136;28;20120;-58
2023/03/08 11:07:57;;;;;;;24.60;22.20;;;;;;;1.38;98.21;99243.06;5029580;28;20053;-57
2023/03/08 11:10:25;;;;;;;24.60;22.30;;;;;;;1.35;98.43;99246.69;5033787;28;20118;-57
2023/03/08 11:13:28;;;;;;;23.95;21.80;;;;;;;1.51;98.81;99249.38;5028458;28;20111;-58
2023/03/08 11:16:13;;;;;;;23.00;20.73;;;;;;;1.36;98.23;99247.53;5012405;28;20037;-58
2023/03/08 11:19:09;;;;;;;23.90;21.40;;;;;;;1.39;98.92;99242.13;5032008;28;20057;-57
2023/03/08 11:21:50;;;;;;;24.03;21.77;;;;;;;1.46;99.19;99221.72;5033363;28;20025;-57
2023/03/08 11:24:38;;;;;;;22.93;20.73;;;;;;;1.51;99.22;99202.22;5028287;28;20052;-58